Main page
METAR-TAF:

METAR-TAF

Airports :

Hercílio Luz International Airport

Florianópolis, Santa Catarina, Brazil

latitude: 27-40S, longitude: 048-33W, elevation: 5 m

Current weather observation

The report was made 11 minutes ago, at 00:00 UTC
Wind 3 kt from the West/Southwest
Temperature 15°C
Humidity 94%
Pressure 1029 hPa
Visibility 10 km or more
Few clouds at a height of 800 ft
Broken clouds at a height of 2000 ft

METAR: SBFL 180000Z 25003KT 9999 FEW008 BKN020 15/14 Q1029

Time: 21:11 (00:11 UTC)

Forecast

The report was made 3 hours and 11 minutes ago, at 21:00 UTC
Forecast valid from 18 at 00 UTC to 18 at 24 UTC
Wind 5 kt from the West/Southwest
Visibility 10 km or more
Broken clouds at a height of 1500 ft
Becoming
from 18 at 12 UTC to 18 at 14 UTC
Wind 5 kt from the South/Southeast
Scattered clouds at a height of 3000 ft

TAF: SBFL 172100Z 1800/1824 24005KT 9999 BKN015 TN14/1806Z TX21/1818Z BECMG 1812/1814 16005KT SCT030 RMK PDW

Weather observations and forecasts of more than 4000 airports (METAR and TAF reports).

The available stations are represented by yellow and red dots on the map.

Hover mouse over dot to see the name of the station.

Then click to see weather observations and forecasts.

To change the map : click on the green buttons with a black cross to zoom in, on the green button with a dash to zoom out, or on the green arrows for adjacent maps.


METAR-TAF: